Time;durP1;ratioP1;P1;durP2;ratioP2;P2;SDS_P1;SDS_P2;PMS_P1;PMS_P2;Temp;Humidity;BMP_temperature;BMP_pressure;BME280_temperature;BME280_humidity;BME280_pressure;Samples;Min_cycle;Max_cycle;Signal;HPM_P1;HPM_P2
2022/02/10 00:06:17;;;;;;;13.60;10.30;;;2.50;99.90;;;;;;5010210;28;20486;-67
2022/02/10 00:14:34;;;;;;;12.07;9.43;;;2.50;99.90;;;;;;5053598;28;20439;-64
2022/02/10 00:17:27;;;;;;;11.70;9.87;;;2.50;99.90;;;;;;5052858;28;20444;-65
2022/02/10 00:20:11;;;;;;;13.03;10.43;;;2.40;99.90;;;;;;5053490;28;20452;-65
2022/02/10 00:23:01;;;;;;;12.80;8.87;;;2.30;99.90;;;;;;5053456;28;20451;-65
2022/02/10 00:36:35;;;;;;;12.73;9.23;;;2.20;99.90;;;;;;5054737;28;20415;-65
2022/02/10 00:39:19;;;;;;;16.90;10.30;;;2.20;99.90;;;;;;5053764;28;20471;-64
2022/02/10 00:41:46;;;;;;;11.33;9.50;;;2.20;99.90;;;;;;5053932;28;20460;-65
2022/02/10 00:44:12;;;;;;;15.40;10.27;;;2.20;99.90;;;;;;5054303;28;20448;-65
2022/02/10 00:46:39;;;;;;;13.60;11.47;;;2.20;99.90;;;;;;5054369;28;20463;-65
2022/02/10 00:49:07;;;;;;;16.50;11.70;;;2.10;99.90;;;;;;5053410;28;20519;-64
2022/02/10 00:51:34;;;;;;;14.93;12.10;;;2.20;99.90;;;;;;5053479;28;21118;-66
2022/02/10 00:54:03;;;;;;;16.87;11.60;;;2.20;99.90;;;;;;5053814;28;20452;-65
2022/02/10 00:56:30;;;;;;;22.57;11.57;;;2.20;99.90;;;;;;5053669;28;20476;-65
2022/02/10 00:59:09;;;;;;;15.17;10.80;;;2.20;99.90;;;;;;5053012;28;20938;-64
2022/02/10 01:07:12;;;;;;;15.13;12.20;;;2.10;99.90;;;;;;5053070;28;20727;-64
2022/02/10 01:12:46;;;;;;;15.57;11.23;;;2.00;99.90;;;;;;4991341;28;20479;-65
2022/02/10 01:31:41;;;;;;;15.50;11.90;;;2.10;99.90;;;;;;5053235;28;20424;-65
2022/02/10 01:34:08;;;;;;;16.23;12.00;;;2.10;99.90;;;;;;5052713;28;20852;-66
2022/02/10 01:36:35;;;;;;;21.83;11.93;;;2.10;99.90;;;;;;5053287;28;20486;-66
2022/02/10 01:39:02;;;;;;;13.20;11.30;;;2.20;99.90;;;;;;5052734;28;20563;-65
2022/02/10 01:58:37;;;;;;;16.00;11.00;;;2.00;99.90;;;;;;5051961;28;20497;-66
2022/02/10 02:03:50;;;;;;;16.90;11.53;;;2.00;99.90;;;;;;5052379;28;20442;-65
2022/02/10 02:06:23;;;;;;;16.83;10.40;;;2.10;99.90;;;;;;5052554;28;20452;-65
2022/02/10 02:08:50;;;;;;;16.30;12.60;;;2.10;99.90;;;;;;5052135;28;20468;-64
2022/02/10 02:11:17;;;;;;;12.63;10.87;;;2.20;99.90;;;;;;5051964;28;20479;-65
2022/02/10 02:13:45;;;;;;;16.63;11.70;;;2.20;99.90;;;;;;5052352;28;20547;-65
2022/02/10 02:16:12;;;;;;;18.20;11.80;;;2.10;99.90;;;;;;5052019;28;20438;-64
2022/02/10 02:18:39;;;;;;;11.80;10.00;;;2.10;99.90;;;;;;5052822;28;20964;-65
2022/02/10 02:21:05;;;;;;;14.33;10.50;;;2.10;99.90;;;;;;5052760;28;20482;-66
2022/02/10 02:23:34;;;;;;;18.00;10.33;;;2.00;99.90;;;;;;5052654;28;20468;-65
2022/02/10 02:26:06;;;;;;;14.60;10.57;;;2.00;99.90;;;;;;5052354;28;20539;-65
2022/02/10 02:28:37;;;;;;;13.30;10.30;;;2.00;99.90;;;;;;5052163;28;20525;-65
2022/02/10 02:31:08;;;;;;;11.50;10.00;;;2.00;99.90;;;;;;5052505;28;20578;-65
2022/02/10 02:34:08;;;;;;;11.67;9.40;;;2.00;99.90;;;;;;5052772;28;20447;-64
2022/02/10 02:39:52;;;;;;;12.50;9.80;;;1.80;99.90;;;;;;5004337;28;20829;-66
2022/02/10 03:04:56;;;;;;;19.13;12.43;;;1.90;99.90;;;;;;5051485;28;20493;-65
2022/02/10 03:07:38;;;;;;;16.03;10.30;;;1.90;99.90;;;;;;5051030;28;21036;-65
2022/02/10 03:10:40;;;;;;;12.43;10.40;;;1.90;99.90;;;;;;5051721;28;20857;-65
2022/02/10 03:13:13;;;;;;;13.13;10.77;;;1.90;99.90;;;;;;5051870;28;20451;-65
2022/02/10 03:15:52;;;;;;;12.97;9.97;;;2.10;99.90;;;;;;5051793;28;20440;-65
2022/02/10 03:18:27;;;;;;;12.77;10.13;;;2.20;99.90;;;;;;5051289;28;20464;-65
2022/02/10 03:21:22;;;;;;;14.30;11.13;;;2.20;99.90;;;;;;5051196;28;20440;-66
2022/02/10 04:08:06;;;;;;;11.70;9.60;;;1.90;99.90;;;;;;5054502;28;20439;-65
2022/02/10 04:10:45;;;;;;;12.07;8.87;;;1.90;99.90;;;;;;5054939;28;20525;-63
2022/02/10 04:13:34;;;;;;;15.27;9.87;;;1.90;99.90;;;;;;5055305;28;20459;-64
2022/02/10 04:16:10;;;;;;;14.57;10.13;;;2.00;99.90;;;;;;5054785;28;20456;-65
2022/02/10 04:19:27;;;;;;;11.47;9.83;;;2.10;99.90;;;;;;5054537;28;21023;-65
2022/02/10 04:21:55;;;;;;;13.77;11.40;;;2.20;99.90;;;;;;5054309;28;20474;-64
2022/02/10 04:24:36;;;;;;;17.00;10.90;;;2.20;99.90;;;;;;5054455;28;20514;-65
2022/02/10 04:27:10;;;;;;;15.40;10.30;;;2.30;99.90;;;;;;5053932;28;20444;-64
2022/02/10 04:29:52;;;;;;;10.50;9.00;;;2.40;99.90;;;;;;5054165;28;20555;-65
2022/02/10 04:32:42;;;;;;;11.77;9.40;;;2.40;99.90;;;;;;5054879;28;20459;-64
2022/02/10 04:57:41;;;;;;;13.07;9.70;;;2.20;99.90;;;;;;5053929;28;20423;-65
2022/02/10 05:00:28;;;;;;;14.27;8.73;;;2.30;99.90;;;;;;5053726;28;20517;-65
2022/02/10 05:12:22;;;;;;;12.97;9.27;;;2.50;99.90;;;;;;4971817;28;20872;-66
2022/02/10 05:17:32;;;;;;;13.10;7.47;;;2.60;99.90;;;;;;5053838;28;20435;-66
2022/02/10 05:23:04;;;;;;;9.50;6.93;;;2.70;99.90;;;;;;5049753;28;20428;-66
2022/02/10 05:33:51;;;;;;;9.60;7.67;;;2.90;99.90;;;;;;5052588;28;20953;-62
2022/02/10 05:36:21;;;;;;;13.07;7.70;;;3.00;99.90;;;;;;5053012;28;20447;-65
2022/02/10 05:38:53;;;;;;;8.20;6.17;;;3.10;99.90;;;;;;5053150;28;20468;-66
2022/02/10 05:58:08;;;;;;;8.00;5.87;;;3.50;99.90;;;;;;5107600;28;20482;-65
2022/02/10 06:53:15;;;;;;;9.20;6.80;;;3.00;99.90;;;;;;5108784;28;20482;-67
2022/02/10 07:04:18;;;;;;;9.50;6.73;;;3.00;99.90;;;;;;5096859;28;20425;-69
2022/02/10 07:07:06;;;;;;;17.30;7.23;;;3.10;99.90;;;;;;5098700;28;20488;-66
2022/02/10 07:10:11;;;;;;;15.10;7.53;;;3.10;99.90;;;;;;5085787;28;20577;-67
2022/02/10 07:48:41;;;;;;;11.43;8.20;;;3.90;99.90;;;;;;5094090;28;20820;-67
2022/02/10 07:54:13;;;;;;;13.00;8.50;;;4.10;99.90;;;;;;5079327;28;20502;-67
2022/02/10 07:56:55;;;;;;;11.10;7.40;;;4.10;99.90;;;;;;5079465;28;20442;-66
2022/02/10 08:57:55;;;;;;;6.90;6.10;;;8.30;99.90;;;;;;5073361;28;20415;-67
2022/02/10 09:03:33;;;;;;;9.20;6.80;;;8.80;99.90;;;;;;5073789;28;20431;-66
2022/02/10 09:06:08;;;;;;;7.63;5.93;;;9.00;99.90;;;;;;5073723;28;20449;-66
2022/02/10 09:11:44;;;;;;;9.40;5.70;;;9.60;99.90;;;;;;5071122;28;20432;-67
2022/02/10 09:18:15;;;;;;;10.30;6.27;;;10.10;99.90;;;;;;5050564;28;20428;-65
2022/02/10 09:20:27;;;;;;;13.60;5.70;;;10.30;99.90;;;;;;5050278;28;20474;-63
2022/02/10 09:48:54;;;;;;;5.50;3.60;;;12.10;99.90;;;;;;5074718;28;20496;-66
2022/02/10 09:56:50;;;;;;;5.73;3.67;;;12.50;99.90;;;;;;5074607;28;20423;-63
2022/02/10 09:59:39;;;;;;;4.97;3.40;;;12.70;99.90;;;;;;5074131;28;20508;-65
2022/02/10 10:02:10;;;;;;;4.70;3.43;;;12.80;99.90;;;;;;5073627;28;20799;-65
2022/02/10 10:04:53;;;;;;;5.03;3.80;;;12.80;99.90;;;;;;5074361;28;20501;-66
2022/02/10 10:07:28;;;;;;;5.33;3.63;;;12.60;99.90;;;;;;5072860;28;21079;-66
2022/02/10 10:10:35;;;;;;;7.63;4.10;;;12.20;99.90;;;;;;5072760;28;20470;-66
2022/02/10 10:16:00;;;;;;;6.37;4.10;;;11.40;99.90;;;;;;5068417;28;20490;-66
2022/02/10 10:18:50;;;;;;;6.50;4.83;;;11.50;99.90;;;;;;5071684;28;20887;-66
2022/02/10 10:21:29;;;;;;;6.10;4.67;;;11.70;99.90;;;;;;5071881;28;20465;-67
2022/02/10 10:24:18;;;;;;;8.10;4.37;;;12.40;99.90;;;;;;5072302;28;20447;-64
2022/02/10 10:52:10;;;;;;;8.93;4.60;;;11.80;99.90;;;;;;5077738;28;20422;-66
2022/02/10 10:54:45;;;;;;;7.63;4.77;;;11.60;99.90;;;;;;5077084;28;20486;-66
2022/02/10 10:57:17;;;;;;;8.17;4.20;;;11.50;99.90;;;;;;5076261;28;20446;-67
2022/02/10 11:23:53;;;;;;;10.10;5.50;;;11.10;99.90;;;;;;5079330;28;20462;-67
2022/02/10 11:38:12;;;;;;;6.47;5.30;;;11.90;99.90;;;;;;5079050;28;20510;-67
2022/02/10 11:44:19;;;;;;;10.30;5.97;;;11.30;99.90;;;;;;5078305;28;20425;-67
2022/02/10 12:34:12;;;;;;;10.37;8.07;;;10.00;99.90;;;;;;5077925;28;20423;-66
2022/02/10 12:42:33;;;;;;;9.47;7.57;;;10.00;99.90;;;;;;5074462;28;20865;-67
2022/02/10 14:13:23;;;;;;;10.30;8.03;;;8.60;99.90;;;;;;5061802;28;20928;-68
2022/02/10 14:18:38;;;;;;;12.10;9.40;;;8.60;99.90;;;;;;5064927;28;20454;-68
2022/02/10 14:21:12;;;;;;;13.50;7.67;;;8.60;99.90;;;;;;5077852;28;20442;-68
2022/02/10 14:29:07;;;;;;;8.80;7.53;;;8.50;99.90;;;;;;5061807;28;20833;-69
2022/02/10 14:31:34;;;;;;;12.17;7.80;;;8.40;99.90;;;;;;5072447;28;20960;-69
2022/02/10 14:34:01;;;;;;;11.93;8.27;;;8.50;99.90;;;;;;5077355;28;20474;-68
2022/02/10 14:36:35;;;;;;;12.43;7.17;;;8.40;99.90;;;;;;5091821;28;20939;-68
2022/02/10 14:39:16;;;;;;;11.97;7.83;;;8.40;99.90;;;;;;5092156;28;20462;-69
2022/02/10 14:42:18;;;;;;;10.97;8.00;;;8.40;99.90;;;;;;5092612;28;20439;-69
2022/02/10 15:13:38;;;;;;;12.90;8.57;;;8.10;99.90;;;;;;5066063;28;20472;-68
2022/02/10 15:54:54;;;;;;;9.50;6.87;;;7.90;99.90;;;;;;5091734;28;20466;-68
2022/02/10 16:11:02;;;;;;;12.40;9.17;;;7.80;99.90;;;;;;5091771;28;20418;-67
2022/02/10 16:19:27;;;;;;;12.43;7.73;;;7.80;99.90;;;;;;5089830;28;20488;-69
2022/02/10 16:22:05;;;;;;;16.30;10.33;;;7.80;99.90;;;;;;5090114;28;20442;-68
2022/02/10 16:24:36;;;;;;;10.13;7.87;;;7.80;99.90;;;;;;5090515;28;20531;-68
2022/02/10 16:27:14;;;;;;;10.40;7.03;;;7.80;99.90;;;;;;5089732;28;20453;-69
2022/02/10 16:29:41;;;;;;;9.10;7.97;;;7.80;99.90;;;;;;5091456;28;20554;-68
2022/02/10 16:32:11;;;;;;;13.40;7.47;;;7.80;99.90;;;;;;5091596;28;20857;-68
2022/02/10 16:34:40;;;;;;;10.50;7.10;;;7.80;99.90;;;;;;5090140;28;21008;-67
2022/02/10 16:37:09;;;;;;;7.73;6.43;;;7.80;99.90;;;;;;5091058;28;20474;-68
2022/02/10 16:39:37;;;;;;;8.90;6.10;;;7.90;99.90;;;;;;5090348;28;20478;-68
2022/02/10 16:42:05;;;;;;;7.77;6.53;;;7.90;99.90;;;;;;5091985;28;20450;-68
2022/02/10 16:44:32;;;;;;;9.60;6.47;;;7.90;99.90;;;;;;5092373;28;20543;-69
2022/02/10 16:47:00;;;;;;;8.33;5.90;;;7.90;99.90;;;;;;5091975;28;20961;-68
2022/02/10 16:49:28;;;;;;;8.93;6.03;;;7.90;99.90;;;;;;5091717;28;20478;-68
2022/02/10 16:51:56;;;;;;;14.00;7.20;;;7.90;99.90;;;;;;5092721;28;20446;-68
2022/02/10 16:54:29;;;;;;;7.93;5.73;;;7.90;99.90;;;;;;5091254;28;21027;-68
2022/02/10 16:57:04;;;;;;;8.67;6.43;;;8.00;99.90;;;;;;5091613;28;20419;-68
2022/02/10 16:59:42;;;;;;;9.63;5.80;;;8.00;99.90;;;;;;5091623;28;20549;-68
2022/02/10 17:02:30;;;;;;;7.20;4.80;;;8.00;99.90;;;;;;5092109;28;20450;-68
2022/02/10 17:17:01;;;;;;;8.80;4.57;;;8.20;99.90;;;;;;5088144;28;20618;-69
2022/02/10 17:19:11;;;;;;;7.40;3.90;;;8.20;99.90;;;;;;5089050;28;20501;-69
2022/02/10 17:27:20;;;;;;;4.27;3.63;;;8.20;99.90;;;;;;5091275;28;20579;-69
2022/02/10 17:30:45;;;;;;;5.03;3.53;;;8.20;99.90;;;;;;5090958;28;20465;-69
2022/02/10 17:33:13;;;;;;;4.70;4.13;;;8.20;99.90;;;;;;5087392;28;20989;-68
2022/02/10 17:36:04;;;;;;;6.03;3.70;;;8.10;99.90;;;;;;5089842;28;20486;-69
2022/02/10 17:44:20;;;;;;;5.80;3.67;;;8.10;99.90;;;;;;5077609;28;20438;-68
2022/02/10 17:51:26;;;;;;;5.90;3.63;;;8.10;99.90;;;;;;5086520;28;20453;-69
2022/02/10 17:52:55;;;;;;;4.93;4.00;;;8.00;99.90;;;;;;5087297;28;20541;-67
2022/02/10 17:55:24;;;;;;;5.87;3.97;;;8.00;99.90;;;;;;5080179;28;20951;-68
2022/02/10 17:57:51;;;;;;;4.90;3.67;;;8.00;99.90;;;;;;5073997;28;20431;-67
2022/02/10 18:00:20;;;;;;;8.00;4.30;;;8.00;99.90;;;;;;5077190;28;20913;-65
2022/02/10 18:02:47;;;;;;;5.43;4.10;;;8.00;99.90;;;;;;5085049;28;20448;-69
2022/02/10 18:05:35;;;;;;;6.83;3.23;;;8.10;99.90;;;;;;5085904;28;20698;-68
2022/02/10 18:08:03;;;;;;;4.77;3.40;;;8.00;99.90;;;;;;5085437;28;20467;-68
2022/02/10 18:13:28;;;;;;;5.27;3.53;;;8.00;99.90;;;;;;5082030;28;20436;-70
2022/02/10 18:16:02;;;;;;;4.63;3.50;;;8.00;99.90;;;;;;5078574;28;20500;-67
2022/02/10 18:18:36;;;;;;;4.63;2.93;;;8.00;99.90;;;;;;5088663;28;20467;-70
2022/02/10 18:21:12;;;;;;;4.30;3.37;;;8.00;99.90;;;;;;5080673;28;20439;-68
2022/02/10 18:24:01;;;;;;;6.80;3.30;;;7.90;99.90;;;;;;5089564;28;20547;-67
2022/02/10 18:26:44;;;;;;;4.63;3.73;;;7.80;99.90;;;;;;5087252;28;20438;-66
2022/02/10 18:29:20;;;;;;;4.70;3.10;;;7.80;99.90;;;;;;5087969;28;20470;-68
2022/02/10 19:02:53;;;;;;;6.00;3.80;;;7.60;99.90;;;;;;5080920;28;20503;-66
2022/02/10 19:05:47;;;;;;;8.17;4.30;;;7.50;99.90;;;;;;5082828;28;20431;-67
2022/02/10 19:08:21;;;;;;;7.63;5.10;;;7.40;99.90;;;;;;5082136;28;20936;-67
2022/02/10 19:10:55;;;;;;;6.50;4.27;;;7.40;99.90;;;;;;5075897;28;20447;-66
2022/02/10 19:13:23;;;;;;;5.87;4.20;;;7.30;99.90;;;;;;5088304;28;20450;-66
2022/02/10 19:15:54;;;;;;;5.30;3.73;;;7.30;99.90;;;;;;5076485;28;20482;-67
2022/02/10 19:18:22;;;;;;;8.80;4.00;;;7.20;99.90;;;;;;5078062;28;20478;-66
2022/02/10 19:20:49;;;;;;;6.70;4.27;;;7.20;99.90;;;;;;5077317;28;20780;-66
2022/02/10 19:23:16;;;;;;;5.30;4.13;;;7.00;99.90;;;;;;5088731;28;20443;-67
2022/02/10 19:25:42;;;;;;;5.07;3.90;;;6.90;99.90;;;;;;5086824;28;20518;-64
2022/02/10 19:28:10;;;;;;;4.73;3.40;;;6.80;99.90;;;;;;5081388;28;20478;-65
2022/02/10 19:30:38;;;;;;;7.87;4.10;;;6.60;99.90;;;;;;5089595;28;20545;-64
2022/02/10 19:33:11;;;;;;;6.03;3.53;;;6.50;99.90;;;;;;5069049;28;20855;-63
2022/02/10 19:35:43;;;;;;;12.40;4.67;;;6.50;99.90;;;;;;5074951;28;20558;-66
2022/02/10 19:38:15;;;;;;;9.40;5.83;;;6.40;99.90;;;;;;5070968;28;20493;-64
2022/02/10 19:40:43;;;;;;;7.93;5.20;;;6.30;99.90;;;;;;5071772;28;20953;-64
2022/02/10 19:43:11;;;;;;;7.10;5.80;;;6.30;99.90;;;;;;5073309;28;20579;-66
2022/02/10 19:45:39;;;;;;;9.20;5.20;;;6.20;99.90;;;;;;5074064;28;20443;-66
2022/02/10 19:48:07;;;;;;;7.53;4.73;;;6.40;99.90;;;;;;5069373;28;20482;-65
2022/02/10 19:50:34;;;;;;;6.00;4.73;;;6.50;99.90;;;;;;5068042;28;20765;-65
2022/02/10 19:53:05;;;;;;;9.50;5.13;;;6.60;99.90;;;;;;5067502;28;20465;-66
2022/02/10 19:55:35;;;;;;;5.07;4.43;;;6.70;99.90;;;;;;5066861;28;20486;-68
2022/02/10 19:58:05;;;;;;;6.77;4.67;;;6.80;99.90;;;;;;5066726;28;20482;-68
2022/02/10 20:00:37;;;;;;;6.47;4.60;;;6.90;99.90;;;;;;5069531;28;20501;-65
2022/02/10 20:03:12;;;;;;;9.80;4.90;;;7.00;99.90;;;;;;5077163;28;20442;-65
2022/02/10 20:05:45;;;;;;;5.60;4.70;;;7.10;99.90;;;;;;5084749;28;20469;-65
2022/02/10 20:08:12;;;;;;;6.07;4.23;;;7.10;99.90;;;;;;5083268;28;20473;-66
2022/02/10 20:10:39;;;;;;;7.87;4.57;;;7.00;99.90;;;;;;5089455;28;20438;-65
2022/02/10 20:13:06;;;;;;;6.07;5.10;;;7.10;99.90;;;;;;5081478;28;20443;-66
2022/02/10 20:15:34;;;;;;;5.57;3.70;;;7.00;99.90;;;;;;5080947;28;20478;-66
2022/02/10 20:18:02;;;;;;;5.70;4.00;;;7.00;99.90;;;;;;5086396;28;20466;-65
2022/02/10 20:20:30;;;;;;;4.80;3.90;;;7.10;99.90;;;;;;5082187;28;20455;-65
2022/02/10 20:22:58;;;;;;;5.37;3.60;;;7.10;99.90;;;;;;5089287;28;20432;-68
2022/02/10 20:25:25;;;;;;;7.03;4.47;;;7.10;99.90;;;;;;5087890;28;20555;-67
2022/02/10 20:27:52;;;;;;;5.13;4.20;;;7.20;99.90;;;;;;5091620;28;20502;-68
2022/02/10 20:30:19;;;;;;;8.73;4.67;;;7.10;99.90;;;;;;5085802;28;20435;-66
2022/02/10 20:32:46;;;;;;;5.80;4.20;;;7.10;99.90;;;;;;5094073;28;20441;-66
2022/02/10 20:35:14;;;;;;;5.33;4.43;;;7.00;99.90;;;;;;5090467;28;20443;-67
2022/02/10 20:37:41;;;;;;;5.93;4.27;;;7.00;99.90;;;;;;5093457;28;20430;-66
2022/02/10 20:40:11;;;;;;;4.83;4.00;;;7.00;99.90;;;;;;5079373;28;20470;-66
2022/02/10 20:42:38;;;;;;;5.53;4.33;;;7.10;99.90;;;;;;5072245;28;20459;-66
2022/02/10 20:45:07;;;;;;;7.57;5.10;;;7.10;99.90;;;;;;5073247;28;20444;-66
2022/02/10 20:47:34;;;;;;;7.60;4.60;;;7.10;99.90;;;;;;5073127;28;20443;-65
2022/02/10 20:50:03;;;;;;;7.10;4.70;;;7.10;99.90;;;;;;5072710;28;20526;-70
2022/02/10 20:52:31;;;;;;;6.03;4.80;;;7.20;99.90;;;;;;5072509;28;20588;-65
2022/02/10 20:54:59;;;;;;;7.50;4.57;;;7.20;99.90;;;;;;5070544;28;20468;-67
2022/02/10 20:57:30;;;;;;;5.33;4.27;;;7.20;99.90;;;;;;5071456;28;20547;-66
2022/02/10 20:59:57;;;;;;;7.93;5.23;;;7.30;99.90;;;;;;5075306;28;20455;-66
2022/02/10 21:02:32;;;;;;;7.20;4.93;;;7.20;99.90;;;;;;5074790;28;20465;-66
2022/02/10 21:05:05;;;;;;;5.40;4.40;;;7.10;99.90;;;;;;5072268;28;20461;-66
2022/02/10 21:07:37;;;;;;;5.47;4.27;;;7.00;99.90;;;;;;5072068;28;20473;-66
2022/02/10 21:10:11;;;;;;;5.80;4.43;;;6.90;99.90;;;;;;5072324;28;20451;-65
2022/02/10 21:12:42;;;;;;;7.90;5.00;;;6.90;99.90;;;;;;5071300;28;20459;-65
2022/02/10 21:15:15;;;;;;;6.30;4.53;;;6.90;99.90;;;;;;5073542;28;20451;-66
2022/02/10 21:17:43;;;;;;;7.67;5.90;;;6.90;99.90;;;;;;5072581;28;20475;-66
2022/02/10 21:20:10;;;;;;;8.13;5.70;;;7.00;99.90;;;;;;5079726;28;20458;-67
2022/02/10 21:22:44;;;;;;;8.47;6.17;;;7.00;99.90;;;;;;5080134;28;20970;-66
2022/02/10 21:25:17;;;;;;;7.73;5.80;;;7.20;99.90;;;;;;5081188;28;20431;-66
2022/02/10 21:27:47;;;;;;;6.90;5.60;;;7.20;99.90;;;;;;5088250;28;20490;-65
2022/02/10 21:30:16;;;;;;;8.07;6.17;;;7.10;99.90;;;;;;5088984;28;20529;-66
2022/02/10 21:32:47;;;;;;;7.17;5.73;;;7.20;99.90;;;;;;5091089;28;20461;-66
2022/02/10 21:35:26;;;;;;;6.70;5.80;;;7.10;99.90;;;;;;5089158;28;20455;-65
2022/02/10 21:37:59;;;;;;;7.37;5.30;;;7.10;99.90;;;;;;5090454;28;20576;-67
2022/02/10 21:40:32;;;;;;;7.00;5.30;;;7.10;99.90;;;;;;5089791;28;20438;-65
2022/02/10 21:52:36;;;;;;;7.67;4.87;;;7.00;99.90;;;;;;5090293;28;20504;-66
2022/02/10 21:57:30;;;;;;;7.20;5.00;;;6.90;99.90;;;;;;5085294;28;20484;-66
2022/02/10 22:00:14;;;;;;;5.77;4.70;;;6.90;99.90;;;;;;5091143;28;20564;-67
2022/02/10 22:11:29;;;;;;;6.83;5.50;;;7.10;99.90;;;;;;4997183;28;20427;-65
2022/02/10 22:19:35;;;;;;;8.43;6.00;;;7.00;99.90;;;;;;5096649;28;20441;-66
2022/02/10 22:22:09;;;;;;;6.73;5.67;;;7.00;99.90;;;;;;5093014;28;21181;-66
2022/02/10 22:24:36;;;;;;;10.60;7.20;;;7.00;99.90;;;;;;5096176;28;20461;-65
2022/02/10 22:27:03;;;;;;;8.00;6.83;;;7.00;99.90;;;;;;5096188;28;20446;-66
2022/02/10 22:29:34;;;;;;;8.53;6.97;;;6.90;99.90;;;;;;5095497;28;20462;-66
2022/02/10 22:32:13;;;;;;;8.13;6.10;;;6.80;99.90;;;;;;5097063;28;20430;-66
2022/02/10 22:34:41;;;;;;;6.47;5.40;;;6.80;99.90;;;;;;5097110;28;20477;-66
2022/02/10 22:37:12;;;;;;;8.00;6.23;;;6.90;99.90;;;;;;5098755;28;20540;-67
2022/02/10 22:39:43;;;;;;;7.50;4.90;;;7.00;99.90;;;;;;5100236;28;20472;-65
2022/02/10 22:42:10;;;;;;;7.10;5.07;;;7.00;99.90;;;;;;5098841;28;20435;-65
2022/02/10 22:44:38;;;;;;;8.30;5.30;;;7.10;99.90;;;;;;5100368;28;20440;-67
2022/02/10 22:47:06;;;;;;;6.70;5.47;;;7.10;99.90;;;;;;5099538;28;20426;-66
2022/02/10 22:49:33;;;;;;;5.60;5.00;;;7.10;99.90;;;;;;5095081;28;20494;-65
2022/02/10 22:52:01;;;;;;;6.53;5.43;;;7.10;99.90;;;;;;5098579;28;20535;-67
2022/02/10 22:54:27;;;;;;;5.87;5.27;;;7.10;99.90;;;;;;5099871;28;20452;-67
2022/02/10 22:56:55;;;;;;;8.20;5.70;;;7.10;99.90;;;;;;5099319;28;20473;-67
2022/02/10 22:59:22;;;;;;;7.57;6.87;;;7.10;99.90;;;;;;5098999;28;20955;-66
2022/02/10 23:01:49;;;;;;;8.60;7.30;;;7.10;99.90;;;;;;5096937;28;20446;-67
2022/02/10 23:04:17;;;;;;;8.50;7.03;;;7.10;99.90;;;;;;5098143;28;20521;-66
2022/02/10 23:06:44;;;;;;;9.50;7.80;;;7.10;99.90;;;;;;5101402;28;20442;-67
2022/02/10 23:09:26;;;;;;;9.80;7.80;;;7.10;99.90;;;;;;5098912;28;20476;-66
2022/02/10 23:11:53;;;;;;;7.73;6.80;;;7.10;99.90;;;;;;5081876;28;20443;-66
2022/02/10 23:14:20;;;;;;;8.97;7.20;;;7.10;99.90;;;;;;5082091;28;20435;-67
2022/02/10 23:16:47;;;;;;;7.87;6.50;;;7.00;99.90;;;;;;5082630;28;20471;-67
2022/02/10 23:19:14;;;;;;;10.83;7.23;;;7.00;99.90;;;;;;5082302;28;20465;-67
2022/02/10 23:21:43;;;;;;;9.23;7.13;;;6.90;99.90;;;;;;5083135;28;20461;-66
2022/02/10 23:24:09;;;;;;;8.83;6.80;;;6.80;99.90;;;;;;5083683;28;20483;-66
2022/02/10 23:26:36;;;;;;;9.90;6.73;;;6.80;99.90;;;;;;5082739;28;20442;-66
2022/02/10 23:29:04;;;;;;;9.50;7.17;;;6.90;99.90;;;;;;5082621;28;20800;-67
2022/02/10 23:31:31;;;;;;;8.40;6.60;;;6.80;99.90;;;;;;5082439;28;20450;-66
2022/02/10 23:34:01;;;;;;;8.00;7.20;;;6.90;99.90;;;;;;5083075;28;20435;-67
2022/02/10 23:36:43;;;;;;;8.53;6.80;;;6.80;99.90;;;;;;5081800;28;20483;-67
2022/02/10 23:39:16;;;;;;;8.90;6.00;;;6.90;99.90;;;;;;5082393;28;20455;-66
2022/02/10 23:41:59;;;;;;;6.80;5.63;;;6.90;99.90;;;;;;5083265;28;20445;-66
2022/02/10 23:44:29;;;;;;;7.53;6.70;;;6.90;99.90;;;;;;5083400;28;20438;-66
2022/02/10 23:46:57;;;;;;;8.20;7.10;;;6.80;99.90;;;;;;5083134;28;20929;-65
2022/02/10 23:49:26;;;;;;;8.73;7.37;;;6.90;99.90;;;;;;5082793;28;20477;-66
2022/02/10 23:51:57;;;;;;;7.93;6.57;;;6.90;99.90;;;;;;5083121;28;20471;-66
2022/02/10 23:54:26;;;;;;;7.47;6.13;;;6.90;99.90;;;;;;5082572;28;20459;-66
2022/02/10 23:56:59;;;;;;;6.73;6.03;;;6.90;99.90;;;;;;5082354;28;21004;-67
